• Join FlightAware (Why Join?)
  • Login
  • US Flag 
12:07AM EDT


 

Airport Tracker/Info


-or-


 

Live Flight TrackerFlight Track Log ✈ AWE3874 ✈ 25-Apr-2013 ✈ KMOB - KCLT

Flight Track Log - Related Links

Times and Time Zones

All times are in EDT time to prevent confusion due to time zone crossing. See the AWE3874 flight status page for this flight to view local times or setup timezone preferences in your user account.

Time Position Orientation Groundspeed Altitude Reporting Facility
EDT Latitude Longitude Course Direction KTS MPH feet Rate Location/Type
03:41PM 30.7753 -88.2806 352° North 248 285 4,400  Level Houston Center
03:42PM 30.9007 -87.9827 41° Northeast  Level FlightAware Approximate
03:42PM 30.8253 -88.2203 46° Northeast 265 305 6,600  Level Houston Center
03:43PM 30.9785 -87.9048 41° Northeast  Level FlightAware Approximate
03:43PM 30.8775 -88.1492 49° Northeast 289 333 8,800  Level Houston Center
03:44PM 31.0521 -87.8215 44° Northeast  Level FlightAware Approximate
03:44PM 30.9333 -88.0736 49° Northeast 311 358 10,000  Level Houston Center
03:45PM 31.1243 -87.7303 52° Northeast  Level FlightAware Approximate
03:45PM 31.0097 -87.9717 49° Northeast 350 403 12,300  Level Houston Center
03:46PM 31.0736 -87.8842 50° Northeast 356 410 14,000 1,740 Climbing Houston Center
03:47PM 31.1392 -87.7944 50° Northeast 364 419 15,900 1,740 Climbing Houston Center
03:48PM 31.2033 -87.7058 50° Northeast 360 414 17,700 1,500 Climbing Houston Center
03:49PM 31.2689 -87.6167 49° Northeast 361 415 19,000 1,260 Climbing Houston Center
03:50PM 31.3478 -87.5064 50° Northeast 370 426 20,400 1,200 Climbing Houston Center
03:51PM 31.3950 -87.4469 47° Northeast 357 411 21,200 1,020 Climbing Atlanta Center
03:52PM 31.4622 -87.3497 51° Northeast 369 425 22,300 1,200 Climbing Atlanta Center
03:53PM 31.5242 -87.2228 60° Northeast 388 447 23,600 1,020 Climbing Atlanta Center
03:54PM 31.5772 -87.1053 62° Northeast 393 452 24,400 720 Climbing Atlanta Center
03:55PM 31.6233 -87.0019 62° Northeast 399 459 25,100 660 Climbing Atlanta Center
03:56PM 31.6786 -86.8769 63° Northeast 409 471 25,800 660 Climbing Atlanta Center
03:57PM 31.7378 -86.7517 61° Northeast 415 478 26,500 660 Climbing Atlanta Center
03:58PM 31.7947 -86.6239 62° Northeast 428 493 27,200 660 Climbing Atlanta Center
03:59PM 31.8517 -86.4936 63° Northeast 433 498 27,900 660 Climbing Atlanta Center
04:00PM 31.9147 -86.3608 61° Northeast 445 512 28,600 600 Climbing Atlanta Center
04:02PM 32.0322 -86.0967 62° Northeast 445 512 29,800 600 Climbing Atlanta Center
04:03PM 32.0906 -85.9658 62° Northeast 451 519 30,500 600 Climbing Atlanta Center
04:04PM 32.1511 -85.8297 62° Northeast 451 519 31,000 480 Climbing Atlanta Center
04:05PM 32.2136 -85.6886 62° Northeast 463 533 31,500 480 Climbing Atlanta Center
04:06PM 32.2717 -85.5519 63° Northeast 468 539 32,000 420 Climbing Atlanta Center
04:07PM 32.3358 -85.4181 60° Northeast 468 539 32,400 360 Climbing Atlanta Center
04:08PM 32.3936 -85.2811 63° Northeast 468 539 32,800 300 Climbing Atlanta Center
04:09PM 32.4556 -85.1417 62° Northeast 468 539 33,000 60 Climbing Atlanta Center
04:10PM 32.5172 -85.0019 62° Northeast 468 539 33,000  Level Atlanta Center
04:11PM 32.5747 -84.8622 64° Northeast 468 539 33,000  Level Atlanta Center
04:12PM 32.6422 -84.7147 61° Northeast 462 532 33,000  Level Atlanta Center
04:13PM 32.7056 -84.5719 62° Northeast 467 537 33,000  Level Atlanta Center
04:14PM 32.7644 -84.4342 63° Northeast 467 537 33,000  Level Atlanta Center
04:15PM 32.8233 -84.2958 63° Northeast 467 537 33,000  Level Atlanta Center
04:16PM 32.8842 -84.1550 63° Northeast 466 536 33,000  Level Atlanta Center
04:17PM 32.9425 -84.0167 63° Northeast 466 536 33,000  Level Atlanta Center
04:18PM 33.0008 -83.8778 63° Northeast 466 536 33,000  Level Atlanta Center
04:19PM 33.0592 -83.7364 64° Northeast 472 543 33,000 -180 Level Atlanta Center
04:20PM 33.1192 -83.5947 63° Northeast 472 543 32,700 -420 Descending Atlanta Center
04:21PM 33.1792 -83.4481 64° Northeast 472 543 32,200 -540 Descending Atlanta Center
04:22PM 33.2389 -83.3036 64° Northeast 472 543 31,700 -540 Descending Atlanta Center
04:23PM 33.3025 -83.1539 63° Northeast 485 558 31,200 -360 Descending Atlanta Center
04:24PM 33.3642 -83.0042 64° Northeast 498 573 31,000 -120 Descending Atlanta Center
04:25PM 33.4253 -82.8539 64° Northeast 489 563 31,000 -420 Level Atlanta Center
04:26PM 33.4825 -82.7189 63° Northeast 489 563 30,200 -1,020 Descending Atlanta Center
04:27PM 33.5433 -82.5658 64° Northeast 494 568 29,000 -600 Descending Atlanta Center
04:28PM 33.6039 -82.4150 64° Northeast 506 582 29,000  Level Atlanta Center
04:29PM 33.6644 -82.2642 64° Northeast 501 577 29,000 -480 Level Atlanta Center
04:30PM 33.7550 -82.1650 42° Northeast 461 531 28,100 -1,500 Descending Atlanta Center
04:31PM 33.8633 -82.1575 North 385 443 26,000 -1,980 Descending Atlanta Center
04:32PM 33.9656 -82.1578 360° North 368 423 24,200 -1,020 Descending Atlanta Center
04:33PM 34.0636 -82.1556 North 355 409 24,000 -420 Descending Atlanta Center
04:34PM 34.1575 -82.1536 North 343 395 23,400 -1,020 Descending Atlanta Center
04:35PM 34.2514 -82.1464 North 338 389 22,000 -1,500 Descending Atlanta Center
04:36PM 34.3272 -82.0617 43° Northeast 340 391 20,400 -1,740 Descending Atlanta Center
04:37PM 34.4008 -81.9669 47° Northeast 349 402 18,600 -1,740 Descending Atlanta Center
04:38PM 34.4722 -81.8744 47° Northeast 360 414 17,000 -1,740 Descending Atlanta Center
04:39PM 34.5458 -81.7842 45° Northeast 370 426 15,200 -2,040 Descending Atlanta Center
04:40PM 34.6231 -81.6836 47° Northeast 370 426 13,000 -1,860 Descending Atlanta Center
04:41PM 34.6822 -81.6139 44° Northeast 348 400 11,500 -1,080 Descending Atlanta Center
04:42PM 34.7414 -81.5364 47° Northeast 318 366 10,900 -300 Descending Atlanta Center
04:43PM 34.7983 -81.4639 46° Northeast 299 344 10,900 -720 Level Atlanta Center
04:44PM 34.8211 -81.3594 75° East 299 344 9,500 -1,320 Descending Atlanta Center
04:45PM 34.8356 -81.2603 80° East 299 344 8,300 -1,440 Descending Atlanta Center
04:45PM 34.8453 -81.2269 70° East 298 343 7,700 -1,320 Descending Atlanta Center
04:46PM 34.8625 -81.1681 70° East 288 331 7,000 -900 Descending Atlanta Center
04:46PM 34.8722 -81.1350 70° East 279 321 6,800 -1,020 Descending Atlanta Center
04:47PM 34.8875 -81.0786 72° East 283 326 6,000 -840 Descending Atlanta Center
04:47PM 34.8972 -81.0478 69° East 275 316 6,000 -840 Level Atlanta Center
04:48PM 34.9108 -80.9994 71° East 256 295 5,200 -900 Descending Atlanta Center
04:48PM 34.9372 -80.9781 34° Northeast 216 249 5,000 -240 Descending Atlanta Center
04:49PM 34.9725 -80.9717 North 199 229 5,000 -120 Level Atlanta Center
04:49PM 34.9933 -80.9658 13° North 208 239 4,900 -240 Descending Atlanta Center